sensor_id;sensor_type;location;lat;lon;timestamp;pressure;altitude;pressure_sealevel;temperature;humidity
13594;BME280;6449;47.666;9.160;2023-07-31T00:03:29;97157.03;;;17.80;100.00
13594;BME280;6449;47.666;9.160;2023-07-31T00:08:22;97155.59;;;17.86;100.00
13594;BME280;6449;47.666;9.160;2023-07-31T00:13:15;97154.31;;;17.54;100.00
13594;BME280;6449;47.666;9.160;2023-07-31T00:18:10;97156.06;;;17.63;100.00
13594;BME280;6449;47.666;9.160;2023-07-31T00:23:03;97153.63;;;17.52;100.00
13594;BME280;6449;47.666;9.160;2023-07-31T00:27:57;97152.81;;;17.51;100.00
13594;BME280;6449;47.666;9.160;2023-07-31T00:32:50;97146.63;;;17.43;100.00
13594;BME280;6449;47.666;9.160;2023-07-31T00:37:45;97153.06;;;17.22;100.00
13594;BME280;6449;47.666;9.160;2023-07-31T00:42:38;97156.44;;;17.15;100.00
13594;BME280;6449;47.666;9.160;2023-07-31T00:47:32;97146.38;;;17.18;100.00
13594;BME280;6449;47.666;9.160;2023-07-31T00:52:25;97150.69;;;17.01;100.00
13594;BME280;6449;47.666;9.160;2023-07-31T00:57:20;97145.41;;;17.01;100.00
13594;BME280;6449;47.666;9.160;2023-07-31T01:02:13;97140.31;;;17.08;100.00
13594;BME280;6449;47.666;9.160;2023-07-31T01:07:14;97130.13;;;16.95;100.00
13594;BME280;6449;47.666;9.160;2023-07-31T01:12:15;97143.03;;;16.98;100.00
13594;BME280;6449;47.666;9.160;2023-07-31T01:17:11;97129.56;;;17.10;100.00
13594;BME280;6449;47.666;9.160;2023-07-31T01:22:27;97129.13;;;17.14;100.00
13594;BME280;6449;47.666;9.160;2023-07-31T01:27:30;97125.59;;;17.06;100.00
13594;BME280;6449;47.666;9.160;2023-07-31T01:32:27;97122.56;;;17.00;100.00
13594;BME280;6449;47.666;9.160;2023-07-31T01:37:21;97116.50;;;17.08;100.00
13594;BME280;6449;47.666;9.160;2023-07-31T01:42:15;97117.03;;;16.94;100.00
13594;BME280;6449;47.666;9.160;2023-07-31T01:47:09;97110.69;;;17.05;100.00
13594;BME280;6449;47.666;9.160;2023-07-31T01:52:03;97107.09;;;16.96;100.00
13594;BME280;6449;47.666;9.160;2023-07-31T01:56:57;97107.03;;;17.06;100.00
13594;BME280;6449;47.666;9.160;2023-07-31T02:01:50;97096.06;;;17.00;100.00
13594;BME280;6449;47.666;9.160;2023-07-31T02:06:47;97092.13;;;16.87;100.00
13594;BME280;6449;47.666;9.160;2023-07-31T02:11:40;97094.31;;;16.73;100.00
13594;BME280;6449;47.666;9.160;2023-07-31T02:16:34;97097.38;;;16.69;100.00
13594;BME280;6449;47.666;9.160;2023-07-31T02:21:28;97088.31;;;16.71;100.00
13594;BME280;6449;47.666;9.160;2023-07-31T02:26:23;97084.72;;;16.90;100.00
13594;BME280;6449;47.666;9.160;2023-07-31T02:31:16;97068.41;;;16.67;100.00
13594;BME280;6449;47.666;9.160;2023-07-31T02:36:13;97067.00;;;16.73;100.00
13594;BME280;6449;47.666;9.160;2023-07-31T02:41:07;97069.19;;;16.77;100.00
13594;BME280;6449;47.666;9.160;2023-07-31T02:46:01;97060.78;;;16.82;100.00
13594;BME280;6449;47.666;9.160;2023-07-31T02:50:55;97063.31;;;16.84;100.00
13594;BME280;6449;47.666;9.160;2023-07-31T02:55:48;97065.25;;;16.82;100.00
13594;BME280;6449;47.666;9.160;2023-07-31T03:00:43;97072.00;;;16.66;100.00
13594;BME280;6449;47.666;9.160;2023-07-31T03:05:37;97086.53;;;16.90;100.00
13594;BME280;6449;47.666;9.160;2023-07-31T03:10:31;97087.91;;;16.94;100.00
13594;BME280;6449;47.666;9.160;2023-07-31T03:15:24;97085.69;;;16.89;100.00
13594;BME280;6449;47.666;9.160;2023-07-31T03:20:17;97078.59;;;16.90;100.00
13594;BME280;6449;47.666;9.160;2023-07-31T03:25:13;97076.66;;;16.82;100.00
13594;BME280;6449;47.666;9.160;2023-07-31T03:30:07;97076.84;;;16.81;100.00
13594;BME280;6449;47.666;9.160;2023-07-31T03:35:01;97086.78;;;16.69;100.00
13594;BME280;6449;47.666;9.160;2023-07-31T03:39:54;97084.94;;;16.79;100.00
13594;BME280;6449;47.666;9.160;2023-07-31T03:44:51;97084.84;;;16.71;100.00
13594;BME280;6449;47.666;9.160;2023-07-31T03:49:44;97085.16;;;16.86;100.00
13594;BME280;6449;47.666;9.160;2023-07-31T03:54:38;97070.31;;;16.93;100.00
13594;BME280;6449;47.666;9.160;2023-07-31T03:59:31;97091.81;;;17.08;100.00
13594;BME280;6449;47.666;9.160;2023-07-31T04:04:26;97093.03;;;17.13;100.00
13594;BME280;6449;47.666;9.160;2023-07-31T04:09:19;97103.09;;;17.27;100.00
13594;BME280;6449;47.666;9.160;2023-07-31T04:14:13;97099.84;;;17.16;100.00
13594;BME280;6449;47.666;9.160;2023-07-31T04:19:06;97102.56;;;17.24;100.00
13594;BME280;6449;47.666;9.160;2023-07-31T04:24:01;97108.91;;;17.13;100.00
13594;BME280;6449;47.666;9.160;2023-07-31T04:28:54;97112.31;;;17.23;100.00
13594;BME280;6449;47.666;9.160;2023-07-31T04:33:47;97108.31;;;17.37;100.00
13594;BME280;6449;47.666;9.160;2023-07-31T04:38:40;97113.00;;;17.43;100.00
13594;BME280;6449;47.666;9.160;2023-07-31T04:43:35;97100.56;;;17.44;100.00
13594;BME280;6449;47.666;9.160;2023-07-31T04:48:31;97106.03;;;17.42;100.00
13594;BME280;6449;47.666;9.160;2023-07-31T04:53:24;97100.59;;;17.52;100.00
13594;BME280;6449;47.666;9.160;2023-07-31T04:58:17;97105.06;;;17.69;100.00
13594;BME280;6449;47.666;9.160;2023-07-31T05:03:12;97109.31;;;17.80;100.00
13594;BME280;6449;47.666;9.160;2023-07-31T05:08:06;97109.66;;;17.85;100.00
13594;BME280;6449;47.666;9.160;2023-07-31T05:12:59;97098.72;;;17.88;100.00
13594;BME280;6449;47.666;9.160;2023-07-31T05:17:52;97096.28;;;17.95;100.00
13594;BME280;6449;47.666;9.160;2023-07-31T05:22:47;97099.91;;;17.94;100.00
13594;BME280;6449;47.666;9.160;2023-07-31T05:27:41;97093.78;;;17.93;100.00
13594;BME280;6449;47.666;9.160;2023-07-31T05:32:34;97104.03;;;17.88;100.00
13594;BME280;6449;47.666;9.160;2023-07-31T05:37:27;97102.13;;;17.72;100.00
13594;BME280;6449;47.666;9.160;2023-07-31T05:42:22;97096.38;;;17.59;100.00
13594;BME280;6449;47.666;9.160;2023-07-31T05:47:15;97107.47;;;17.63;100.00
13594;BME280;6449;47.666;9.160;2023-07-31T05:52:09;97108.53;;;17.70;100.00
13594;BME280;6449;47.666;9.160;2023-07-31T05:57:02;97107.59;;;17.53;100.00
13594;BME280;6449;47.666;9.160;2023-07-31T06:01:57;97106.28;;;17.57;100.00
13594;BME280;6449;47.666;9.160;2023-07-31T06:06:51;97101.13;;;17.55;100.00
13594;BME280;6449;47.666;9.160;2023-07-31T06:11:44;97112.56;;;17.56;100.00
13594;BME280;6449;47.666;9.160;2023-07-31T06:16:38;97106.81;;;17.61;100.00
13594;BME280;6449;47.666;9.160;2023-07-31T06:21:33;97108.34;;;17.63;100.00
13594;BME280;6449;47.666;9.160;2023-07-31T06:26:29;97095.75;;;17.65;100.00
13594;BME280;6449;47.666;9.160;2023-07-31T06:31:22;97103.03;;;17.63;100.00
13594;BME280;6449;47.666;9.160;2023-07-31T06:36:16;97109.53;;;17.69;100.00
13594;BME280;6449;47.666;9.160;2023-07-31T06:41:10;97108.16;;;17.83;100.00
13594;BME280;6449;47.666;9.160;2023-07-31T06:46:05;97108.59;;;18.04;100.00
13594;BME280;6449;47.666;9.160;2023-07-31T06:50:59;97095.16;;;18.05;100.00
13594;BME280;6449;47.666;9.160;2023-07-31T06:55:53;97099.81;;;18.03;100.00
13594;BME280;6449;47.666;9.160;2023-07-31T07:00:48;97096.63;;;18.00;100.00
13594;BME280;6449;47.666;9.160;2023-07-31T07:05:42;97097.69;;;18.07;100.00
13594;BME280;6449;47.666;9.160;2023-07-31T07:10:36;97109.84;;;18.18;100.00
13594;BME280;6449;47.666;9.160;2023-07-31T07:15:30;97096.81;;;18.41;100.00
13594;BME280;6449;47.666;9.160;2023-07-31T07:20:26;97073.75;;;18.83;100.00
13594;BME280;6449;47.666;9.160;2023-07-31T07:25:20;97079.78;;;19.18;100.00
13594;BME280;6449;47.666;9.160;2023-07-31T07:30:13;97075.75;;;19.06;100.00
13594;BME280;6449;47.666;9.160;2023-07-31T07:35:08;97072.44;;;19.12;100.00
13594;BME280;6449;47.666;9.160;2023-07-31T07:40:03;97075.28;;;19.19;100.00
13594;BME280;6449;47.666;9.160;2023-07-31T07:44:57;97075.44;;;19.17;100.00
13594;BME280;6449;47.666;9.160;2023-07-31T07:49:50;97088.06;;;19.23;100.00
13594;BME280;6449;47.666;9.160;2023-07-31T07:54:44;97094.03;;;19.17;100.00
13594;BME280;6449;47.666;9.160;2023-07-31T07:59:40;97092.88;;;19.11;100.00
13594;BME280;6449;47.666;9.160;2023-07-31T08:04:33;97077.09;;;19.18;100.00
13594;BME280;6449;47.666;9.160;2023-07-31T08:09:27;97083.59;;;19.24;100.00
13594;BME280;6449;47.666;9.160;2023-07-31T08:14:20;97088.06;;;19.48;100.00
13594;BME280;6449;47.666;9.160;2023-07-31T08:19:14;97084.88;;;19.85;100.00
13594;BME280;6449;47.666;9.160;2023-07-31T08:24:08;97066.88;;;20.42;100.00
13594;BME280;6449;47.666;9.160;2023-07-31T08:29:01;97058.75;;;20.98;100.00
13594;BME280;6449;47.666;9.160;2023-07-31T08:33:55;97073.72;;;20.76;100.00
13594;BME280;6449;47.666;9.160;2023-07-31T08:38:50;97065.97;;;20.89;100.00
13594;BME280;6449;47.666;9.160;2023-07-31T08:43:45;97057.03;;;21.05;100.00
13594;BME280;6449;47.666;9.160;2023-07-31T08:48:41;97051.00;;;21.11;100.00
13594;BME280;6449;47.666;9.160;2023-07-31T08:53:36;97049.75;;;20.99;100.00
13594;BME280;6449;47.666;9.160;2023-07-31T08:58:32;97032.22;;;21.05;100.00
13594;BME280;6449;47.666;9.160;2023-07-31T09:03:26;97034.63;;;20.91;100.00
13594;BME280;6449;47.666;9.160;2023-07-31T09:08:21;97023.63;;;20.95;100.00
13594;BME280;6449;47.666;9.160;2023-07-31T09:13:15;97014.97;;;21.53;100.00
13594;BME280;6449;47.666;9.160;2023-07-31T09:18:10;97005.69;;;21.93;100.00
13594;BME280;6449;47.666;9.160;2023-07-31T09:23:09;97003.50;;;22.12;100.00
13594;BME280;6449;47.666;9.160;2023-07-31T09:28:05;97012.41;;;22.19;100.00
13594;BME280;6449;47.666;9.160;2023-07-31T09:33:04;97010.44;;;22.42;99.91
13594;BME280;6449;47.666;9.160;2023-07-31T09:38:04;97002.69;;;22.69;98.63
13594;BME280;6449;47.666;9.160;2023-07-31T09:43:00;96999.81;;;22.64;95.21
13594;BME280;6449;47.666;9.160;2023-07-31T09:47:54;97004.13;;;22.65;98.32
13594;BME280;6449;47.666;9.160;2023-07-31T09:52:48;96999.06;;;22.91;99.19
13594;BME280;6449;47.666;9.160;2023-07-31T09:57:46;96991.69;;;23.21;96.22
13594;BME280;6449;47.666;9.160;2023-07-31T10:02:39;96977.38;;;23.29;93.02
13594;BME280;6449;47.666;9.160;2023-07-31T10:07:39;96968.88;;;23.53;99.23
13594;BME280;6449;47.666;9.160;2023-07-31T10:12:34;96965.66;;;23.30;97.44
13594;BME280;6449;47.666;9.160;2023-07-31T10:17:30;96984.41;;;23.37;100.00
13594;BME280;6449;47.666;9.160;2023-07-31T10:22:24;96948.28;;;23.54;87.57
13594;BME280;6449;47.666;9.160;2023-07-31T10:27:18;96947.03;;;23.78;88.84
13594;BME280;6449;47.666;9.160;2023-07-31T10:32:12;96934.56;;;23.98;92.01
13594;BME280;6449;47.666;9.160;2023-07-31T10:37:25;96928.41;;;24.04;87.44
13594;BME280;6449;47.666;9.160;2023-07-31T10:42:18;96913.41;;;24.17;91.43
13594;BME280;6449;47.666;9.160;2023-07-31T10:47:15;96906.41;;;24.22;92.44
13594;BME280;6449;47.666;9.160;2023-07-31T10:52:12;96887.50;;;24.37;91.60
13594;BME280;6449;47.666;9.160;2023-07-31T10:57:21;96878.19;;;24.33;88.26
13594;BME280;6449;47.666;9.160;2023-07-31T11:02:25;96868.97;;;24.36;84.24
13594;BME280;6449;47.666;9.160;2023-07-31T11:07:22;96867.09;;;24.43;89.51
13594;BME280;6449;47.666;9.160;2023-07-31T11:12:17;96846.94;;;24.67;90.62
13594;BME280;6449;47.666;9.160;2023-07-31T11:17:12;96845.47;;;24.58;86.54
13594;BME280;6449;47.666;9.160;2023-07-31T11:22:12;96826.06;;;24.75;83.82
13594;BME280;6449;47.666;9.160;2023-07-31T11:27:08;96826.25;;;24.87;83.22
13594;BME280;6449;47.666;9.160;2023-07-31T11:32:01;96822.16;;;24.65;81.50
13594;BME280;6449;47.666;9.160;2023-07-31T11:36:56;96831.16;;;24.17;80.22
13594;BME280;6449;47.666;9.160;2023-07-31T11:41:49;96845.41;;;24.24;83.11
13594;BME280;6449;47.666;9.160;2023-07-31T11:46:43;96836.53;;;23.56;82.34
13594;BME280;6449;47.666;9.160;2023-07-31T11:51:37;96854.66;;;23.19;88.70
13594;BME280;6449;47.666;9.160;2023-07-31T11:56:32;96836.63;;;23.00;84.22
13594;BME280;6449;47.666;9.160;2023-07-31T12:01:27;96843.59;;;22.94;90.81
13594;BME280;6449;47.666;9.160;2023-07-31T12:06:21;96833.97;;;23.41;88.51
13594;BME280;6449;47.666;9.160;2023-07-31T12:11:14;96828.13;;;23.18;88.42
13594;BME280;6449;47.666;9.160;2023-07-31T12:16:11;96830.06;;;23.03;88.38
13594;BME280;6449;47.666;9.160;2023-07-31T12:21:06;96820.66;;;23.07;92.03
13594;BME280;6449;47.666;9.160;2023-07-31T12:26:01;96810.22;;;22.90;88.59
13594;BME280;6449;47.666;9.160;2023-07-31T12:30:58;96801.72;;;22.80;95.30
13594;BME280;6449;47.666;9.160;2023-07-31T12:35:53;96774.88;;;23.30;88.46
13594;BME280;6449;47.666;9.160;2023-07-31T12:40:47;96781.44;;;23.75;92.41
13594;BME280;6449;47.666;9.160;2023-07-31T12:45:40;96775.59;;;23.58;87.96
13594;BME280;6449;47.666;9.160;2023-07-31T12:50:33;96776.97;;;23.41;92.72
13594;BME280;6449;47.666;9.160;2023-07-31T12:55:30;96756.84;;;23.51;86.80
13594;BME280;6449;47.666;9.160;2023-07-31T13:00:23;96754.47;;;23.83;88.39
13594;BME280;6449;47.666;9.160;2023-07-31T13:05:18;96732.06;;;24.24;82.46
13594;BME280;6449;47.666;9.160;2023-07-31T13:10:12;96725.44;;;24.60;81.78
13594;BME280;6449;47.666;9.160;2023-07-31T13:15:09;96739.06;;;24.25;85.31
13594;BME280;6449;47.666;9.160;2023-07-31T13:20:03;96733.28;;;23.95;89.91
13594;BME280;6449;47.666;9.160;2023-07-31T13:24:57;96726.06;;;23.95;91.47
13594;BME280;6449;47.666;9.160;2023-07-31T13:29:52;96713.06;;;23.86;87.90
13594;BME280;6449;47.666;9.160;2023-07-31T13:34:47;96705.06;;;23.92;89.47
13594;BME280;6449;47.666;9.160;2023-07-31T13:39:42;96693.72;;;23.84;88.18
13594;BME280;6449;47.666;9.160;2023-07-31T13:44:38;96687.13;;;24.19;90.43
13594;BME280;6449;47.666;9.160;2023-07-31T13:49:33;96683.81;;;24.17;83.96
13594;BME280;6449;47.666;9.160;2023-07-31T13:54:31;96687.53;;;24.10;88.70
13594;BME280;6449;47.666;9.160;2023-07-31T13:59:24;96669.16;;;24.33;82.96
13594;BME280;6449;47.666;9.160;2023-07-31T14:04:17;96674.75;;;24.51;83.57
13594;BME280;6449;47.666;9.160;2023-07-31T14:09:11;96655.75;;;24.60;76.26
13594;BME280;6449;47.666;9.160;2023-07-31T14:14:09;96675.16;;;24.48;83.79
13594;BME280;6449;47.666;9.160;2023-07-31T14:19:02;96663.19;;;24.44;84.26
13594;BME280;6449;47.666;9.160;2023-07-31T14:23:56;96676.81;;;24.43;85.23
13594;BME280;6449;47.666;9.160;2023-07-31T14:28:50;96659.88;;;24.62;82.63
13594;BME280;6449;47.666;9.160;2023-07-31T14:33:45;96647.50;;;24.68;81.68
13594;BME280;6449;47.666;9.160;2023-07-31T14:38:38;96658.44;;;24.60;86.83
13594;BME280;6449;47.666;9.160;2023-07-31T14:43:31;96652.50;;;24.51;85.47
13594;BME280;6449;47.666;9.160;2023-07-31T14:48:25;96663.00;;;24.46;87.92
13594;BME280;6449;47.666;9.160;2023-07-31T14:53:28;96652.06;;;24.27;83.35
13594;BME280;6449;47.666;9.160;2023-07-31T14:58:21;96648.19;;;24.03;86.15
13594;BME280;6449;47.666;9.160;2023-07-31T15:03:16;96645.91;;;24.07;87.46
13594;BME280;6449;47.666;9.160;2023-07-31T15:08:09;96642.59;;;24.31;88.42
13594;BME280;6449;47.666;9.160;2023-07-31T15:13:04;96644.66;;;24.29;92.44
13594;BME280;6449;47.666;9.160;2023-07-31T15:17:57;96633.53;;;24.46;90.03
13594;BME280;6449;47.666;9.160;2023-07-31T15:22:51;96625.06;;;24.42;87.01
13594;BME280;6449;47.666;9.160;2023-07-31T15:27:44;96614.16;;;24.30;88.50
13594;BME280;6449;47.666;9.160;2023-07-31T15:32:39;96616.63;;;24.25;88.35
13594;BME280;6449;47.666;9.160;2023-07-31T15:37:34;96605.06;;;24.31;87.91
13594;BME280;6449;47.666;9.160;2023-07-31T15:42:28;96579.09;;;24.39;81.48
13594;BME280;6449;47.666;9.160;2023-07-31T15:47:22;96584.09;;;24.35;85.36
13594;BME280;6449;47.666;9.160;2023-07-31T15:52:17;96584.47;;;24.45;87.16
13594;BME280;6449;47.666;9.160;2023-07-31T15:57:10;96579.53;;;24.42;91.19
13594;BME280;6449;47.666;9.160;2023-07-31T16:02:04;96584.91;;;24.36;94.09
13594;BME280;6449;47.666;9.160;2023-07-31T16:06:57;96585.50;;;24.31;95.04
13594;BME280;6449;47.666;9.160;2023-07-31T16:11:52;96574.63;;;24.19;90.73
13594;BME280;6449;47.666;9.160;2023-07-31T16:16:46;96577.28;;;24.26;93.78
13594;BME280;6449;47.666;9.160;2023-07-31T16:21:40;96576.03;;;24.22;99.09
13594;BME280;6449;47.666;9.160;2023-07-31T16:26:33;96557.94;;;24.11;97.63
13594;BME280;6449;47.666;9.160;2023-07-31T16:31:28;96566.00;;;24.04;91.94
13594;BME280;6449;47.666;9.160;2023-07-31T16:36:38;96559.41;;;24.00;93.64
13594;BME280;6449;47.666;9.160;2023-07-31T16:41:32;96560.47;;;23.79;97.53
13594;BME280;6449;47.666;9.160;2023-07-31T16:46:26;96559.22;;;23.75;98.77
13594;BME280;6449;47.666;9.160;2023-07-31T16:51:20;96551.19;;;23.62;96.94
13594;BME280;6449;47.666;9.160;2023-07-31T16:56:14;96553.69;;;23.63;100.00
13594;BME280;6449;47.666;9.160;2023-07-31T17:01:07;96554.06;;;23.53;100.00
13594;BME280;6449;47.666;9.160;2023-07-31T17:06:00;96551.38;;;23.47;100.00
13594;BME280;6449;47.666;9.160;2023-07-31T17:10:55;96548.69;;;23.27;100.00
13594;BME280;6449;47.666;9.160;2023-07-31T17:15:51;96545.81;;;23.22;100.00
13594;BME280;6449;47.666;9.160;2023-07-31T17:20:44;96541.88;;;23.11;100.00
13594;BME280;6449;47.666;9.160;2023-07-31T17:25:38;96537.56;;;23.17;100.00
13594;BME280;6449;47.666;9.160;2023-07-31T17:30:33;96518.47;;;23.07;100.00
13594;BME280;6449;47.666;9.160;2023-07-31T17:35:26;96528.13;;;23.01;100.00
13594;BME280;6449;47.666;9.160;2023-07-31T17:40:19;96519.06;;;23.02;100.00
13594;BME280;6449;47.666;9.160;2023-07-31T17:45:13;96522.09;;;22.86;100.00
13594;BME280;6449;47.666;9.160;2023-07-31T17:50:08;96522.25;;;22.71;100.00
13594;BME280;6449;47.666;9.160;2023-07-31T17:55:02;96523.25;;;22.63;100.00
13594;BME280;6449;47.666;9.160;2023-07-31T17:59:55;96509.06;;;22.56;100.00
13594;BME280;6449;47.666;9.160;2023-07-31T18:04:49;96512.31;;;22.52;100.00
13594;BME280;6449;47.666;9.160;2023-07-31T18:09:44;96517.06;;;22.49;100.00
13594;BME280;6449;47.666;9.160;2023-07-31T18:14:37;96511.25;;;22.39;100.00
13594;BME280;6449;47.666;9.160;2023-07-31T18:19:32;96508.72;;;22.25;100.00
13594;BME280;6449;47.666;9.160;2023-07-31T18:24:25;96510.13;;;22.20;100.00
13594;BME280;6449;47.666;9.160;2023-07-31T18:29:20;96510.88;;;22.08;100.00
13594;BME280;6449;47.666;9.160;2023-07-31T18:34:13;96509.38;;;21.98;100.00
13594;BME280;6449;47.666;9.160;2023-07-31T18:39:06;96501.34;;;21.92;100.00
13594;BME280;6449;47.666;9.160;2023-07-31T18:44:00;96515.28;;;21.87;100.00
13594;BME280;6449;47.666;9.160;2023-07-31T18:48:55;96506.16;;;21.68;100.00
13594;BME280;6449;47.666;9.160;2023-07-31T18:53:48;96503.81;;;21.59;100.00
13594;BME280;6449;47.666;9.160;2023-07-31T18:58:42;96494.66;;;21.68;100.00
13594;BME280;6449;47.666;9.160;2023-07-31T19:03:35;96492.38;;;21.65;100.00
13594;BME280;6449;47.666;9.160;2023-07-31T19:08:32;96493.13;;;21.52;100.00
13594;BME280;6449;47.666;9.160;2023-07-31T19:13:27;96503.72;;;21.24;100.00
13594;BME280;6449;47.666;9.160;2023-07-31T19:18:20;96504.19;;;21.28;100.00
13594;BME280;6449;47.666;9.160;2023-07-31T19:23:13;96494.03;;;21.38;100.00
13594;BME280;6449;47.666;9.160;2023-07-31T19:28:08;96496.97;;;21.50;100.00
13594;BME280;6449;47.666;9.160;2023-07-31T19:33:01;96505.41;;;21.47;100.00
13594;BME280;6449;47.666;9.160;2023-07-31T19:37:55;96499.38;;;21.38;100.00
13594;BME280;6449;47.666;9.160;2023-07-31T19:42:48;96494.84;;;21.38;100.00
13594;BME280;6449;47.666;9.160;2023-07-31T19:47:43;96487.22;;;21.35;100.00
13594;BME280;6449;47.666;9.160;2023-07-31T19:52:38;96481.91;;;21.14;100.00
13594;BME280;6449;47.666;9.160;2023-07-31T19:57:33;96482.94;;;20.91;100.00
13594;BME280;6449;47.666;9.160;2023-07-31T20:02:26;96484.94;;;20.83;100.00
13594;BME280;6449;47.666;9.160;2023-07-31T20:07:21;96474.94;;;20.91;100.00
13594;BME280;6449;47.666;9.160;2023-07-31T20:12:15;96469.66;;;20.98;100.00
13594;BME280;6449;47.666;9.160;2023-07-31T20:17:08;96463.19;;;21.07;100.00
13594;BME280;6449;47.666;9.160;2023-07-31T20:22:01;96463.97;;;21.01;100.00
13594;BME280;6449;47.666;9.160;2023-07-31T20:26:56;96454.91;;;20.96;100.00
13594;BME280;6449;47.666;9.160;2023-07-31T20:31:49;96456.00;;;20.80;100.00
13594;BME280;6449;47.666;9.160;2023-07-31T20:36:43;96455.44;;;20.84;100.00
13594;BME280;6449;47.666;9.160;2023-07-31T20:41:36;96450.75;;;20.93;100.00
13594;BME280;6449;47.666;9.160;2023-07-31T20:46:31;96442.03;;;20.99;100.00
13594;BME280;6449;47.666;9.160;2023-07-31T20:51:26;96429.75;;;21.05;100.00
13594;BME280;6449;47.666;9.160;2023-07-31T20:56:19;96424.81;;;21.02;100.00
13594;BME280;6449;47.666;9.160;2023-07-31T21:01:13;96420.59;;;20.86;100.00
13594;BME280;6449;47.666;9.160;2023-07-31T21:06:07;96405.75;;;20.77;100.00
13594;BME280;6449;47.666;9.160;2023-07-31T21:11:01;96395.34;;;20.60;100.00
13594;BME280;6449;47.666;9.160;2023-07-31T21:15:58;96393.75;;;20.45;100.00
13594;BME280;6449;47.666;9.160;2023-07-31T21:20:52;96400.03;;;20.37;100.00
13594;BME280;6449;47.666;9.160;2023-07-31T21:25:49;96400.34;;;20.27;100.00
13594;BME280;6449;47.666;9.160;2023-07-31T21:30:45;96385.69;;;20.38;100.00
13594;BME280;6449;47.666;9.160;2023-07-31T21:35:39;96377.19;;;20.28;100.00
13594;BME280;6449;47.666;9.160;2023-07-31T21:40:32;96377.34;;;20.41;100.00
13594;BME280;6449;47.666;9.160;2023-07-31T21:45:27;96375.00;;;20.31;100.00
13594;BME280;6449;47.666;9.160;2023-07-31T21:50:20;96380.44;;;20.45;100.00
13594;BME280;6449;47.666;9.160;2023-07-31T21:55:17;96357.75;;;20.49;100.00
13594;BME280;6449;47.666;9.160;2023-07-31T22:00:12;96361.53;;;20.39;100.00
13594;BME280;6449;47.666;9.160;2023-07-31T22:05:07;96358.69;;;20.41;100.00
13594;BME280;6449;47.666;9.160;2023-07-31T22:10:01;96365.88;;;20.40;100.00
13594;BME280;6449;47.666;9.160;2023-07-31T22:14:54;96350.06;;;20.39;100.00
13594;BME280;6449;47.666;9.160;2023-07-31T22:19:47;96346.63;;;20.24;100.00
13594;BME280;6449;47.666;9.160;2023-07-31T22:24:42;96342.66;;;20.13;100.00
13594;BME280;6449;47.666;9.160;2023-07-31T22:29:39;96333.16;;;20.25;100.00
13594;BME280;6449;47.666;9.160;2023-07-31T22:34:32;96336.06;;;20.30;100.00
13594;BME280;6449;47.666;9.160;2023-07-31T22:39:26;96331.63;;;20.37;100.00
13594;BME280;6449;47.666;9.160;2023-07-31T22:44:21;96319.94;;;20.38;100.00
13594;BME280;6449;47.666;9.160;2023-07-31T22:49:15;96321.59;;;20.39;100.00
13594;BME280;6449;47.666;9.160;2023-07-31T22:54:09;96323.34;;;20.26;100.00
13594;BME280;6449;47.666;9.160;2023-07-31T22:59:02;96311.88;;;20.25;100.00
13594;BME280;6449;47.666;9.160;2023-07-31T23:03:57;96308.22;;;20.33;100.00
13594;BME280;6449;47.666;9.160;2023-07-31T23:08:50;96300.03;;;20.34;100.00
13594;BME280;6449;47.666;9.160;2023-07-31T23:13:43;96300.44;;;20.31;100.00
13594;BME280;6449;47.666;9.160;2023-07-31T23:18:37;96297.00;;;20.37;100.00
13594;BME280;6449;47.666;9.160;2023-07-31T23:23:31;96299.56;;;20.24;100.00
13594;BME280;6449;47.666;9.160;2023-07-31T23:28:25;96289.28;;;20.21;100.00
13594;BME280;6449;47.666;9.160;2023-07-31T23:33:18;96272.31;;;20.22;100.00
13594;BME280;6449;47.666;9.160;2023-07-31T23:38:12;96279.03;;;19.97;100.00
13594;BME280;6449;47.666;9.160;2023-07-31T23:43:06;96264.91;;;19.96;100.00
13594;BME280;6449;47.666;9.160;2023-07-31T23:47:59;96258.72;;;19.89;100.00
13594;BME280;6449;47.666;9.160;2023-07-31T23:52:54;96240.44;;;20.07;100.00
13594;BME280;6449;47.666;9.160;2023-07-31T23:57:47;96210.72;;;20.25;100.00
